Goddard, Kansas
Current Conditions -  °F | °C
As of 6:53 AM on Friday 24 Oct 2014 (Local Time) from KICT Reporting Station
Haze Haze  
Wind Chill: 56°   Ceiling: 25000
Heat Index: 56°   Visibility: 4mi
Dew Point: 53°   Wind: 5mph
Humidity: 90%   Direction: 170°S
Pressure: 30.05"   Gusts: NA
Location:  37.66°N, 97.58°W
Report Text: KICT 241153Z 17004KT 4SM BR FEW012 BKN250 13/12 A3005 RMK AO2 SLP170 T01330117 10167 20133 55001
Loading
Personal Weather Stations






























Interactive Weather Map
Tropical Storm Tracking
New forecast layout! Learn more

10-Day Weather Forecast

Advertisements
Track Severe Weather on mobile